Time;durP1;ratioP1;P1;durP2;ratioP2;P2;SDS_P1;SDS_P2;PMS_P1;PMS_P2;Temp;Humidity;BMP_temperature;BMP_pressure;BME280_temperature;BME280_humidity;BME280_pressure;Samples;Min_cycle;Max_cycle;Signal;HPM_P1;HPM_P2
2022/02/21 00:00:11;;;;;;;6.43;1.17;;;9.60;99.90;;;;;;5036223;28;20512;-83
2022/02/21 00:02:38;;;;;;;7.60;2.10;;;9.50;99.90;;;;;;5036305;28;20410;-87
2022/02/21 00:05:04;;;;;;;3.63;0.90;;;9.30;99.90;;;;;;5036613;28;20412;-86
2022/02/21 00:07:30;;;;;;;2.30;0.63;;;9.20;99.90;;;;;;5036288;28;20457;-81
2022/02/21 00:09:55;;;;;;;0.90;0.47;;;8.90;99.90;;;;;;5036002;28;20511;-81
2022/02/21 00:12:27;;;;;;;3.00;0.20;;;8.80;99.90;;;;;;5030768;28;20265;-86
2022/02/21 00:14:52;;;;;;;0.80;0.50;;;8.60;99.90;;;;;;5016329;28;20200;-86
2022/02/21 00:17:20;;;;;;;1.50;0.37;;;8.50;99.90;;;;;;5015096;28;20959;-87
2022/02/21 00:19:46;;;;;;;2.30;0.40;;;8.30;99.90;;;;;;5015845;28;20193;-89
2022/02/21 00:22:11;;;;;;;1.30;0.30;;;8.10;99.90;;;;;;5037635;28;20962;-81
2022/02/21 00:24:37;;;;;;;0.50;0.30;;;8.00;99.90;;;;;;5032120;28;20191;-87
2022/02/21 00:27:03;;;;;;;0.97;0.50;;;8.00;99.90;;;;;;5034459;28;20578;-87
2022/02/21 00:29:29;;;;;;;1.10;0.20;;;8.00;99.90;;;;;;5037896;28;20910;-82
2022/02/21 00:31:55;;;;;;;2.77;0.77;;;7.90;99.90;;;;;;5035788;28;20172;-81
2022/02/21 00:34:21;;;;;;;1.03;0.20;;;7.80;99.90;;;;;;5033793;28;20422;-86
2022/02/21 00:36:46;;;;;;;2.80;0.30;;;7.70;99.90;;;;;;5033979;28;20425;-83
2022/02/21 00:39:12;;;;;;;1.33;0.20;;;7.70;99.90;;;;;;5035077;28;20180;-88
2022/02/21 00:41:37;;;;;;;3.20;0.83;;;7.60;99.90;;;;;;5034139;28;20539;-81
2022/02/21 00:44:03;;;;;;;0.60;0.37;;;7.50;99.90;;;;;;5047456;28;20178;-84
2022/02/21 00:46:29;;;;;;;1.17;0.30;;;7.40;99.90;;;;;;5036473;28;20551;-82
2022/02/21 00:48:54;;;;;;;7.20;0.90;;;7.40;99.90;;;;;;5033958;28;20592;-83
2022/02/21 00:51:20;;;;;;;4.30;0.30;;;7.30;99.90;;;;;;5033887;28;20179;-85
2022/02/21 00:53:45;;;;;;;2.63;0.70;;;7.40;99.90;;;;;;5034991;28;20182;-82
2022/02/21 00:56:11;;;;;;;3.80;0.43;;;7.30;99.90;;;;;;5035139;28;20174;-82
2022/02/21 00:58:36;;;;;;;1.40;0.20;;;7.30;99.90;;;;;;5033868;28;20178;-82
2022/02/21 01:01:02;;;;;;;5.07;0.60;;;7.20;99.90;;;;;;5034884;28;20183;-84
2022/02/21 01:03:27;;;;;;;1.83;0.77;;;7.10;99.90;;;;;;5034357;28;20184;-83
2022/02/21 01:05:53;;;;;;;0.67;0.20;;;7.00;99.90;;;;;;5034861;28;20179;-82
2022/02/21 01:08:18;;;;;;;1.93;0.27;;;7.00;99.90;;;;;;5033386;28;20564;-83
2022/02/21 01:10:44;;;;;;;2.00;0.30;;;7.00;99.90;;;;;;5033470;28;20673;-82
2022/02/21 01:13:10;;;;;;;2.97;0.30;;;7.00;99.90;;;;;;5034646;28;20170;-83
2022/02/21 01:15:35;;;;;;;1.70;0.47;;;;;;;;;;5034720;28;20175;-83
2022/02/21 01:18:01;;;;;;;1.20;0.37;;;6.90;99.90;;;;;;5033013;28;20269;-83
2022/02/21 01:20:26;;;;;;;0.33;0.20;;;6.90;99.90;;;;;;5033141;28;20866;-83
2022/02/21 01:22:52;;;;;;;0.77;0.27;;;6.80;99.90;;;;;;5034374;28;20675;-82
2022/02/21 01:25:21;;;;;;;0.70;0.37;;;6.80;99.90;;;;;;5034328;28;20689;-83
2022/02/21 01:27:46;;;;;;;1.43;0.47;;;6.70;99.90;;;;;;5032479;28;20197;-83
2022/02/21 01:30:13;;;;;;;1.40;0.30;;;6.80;99.90;;;;;;5034359;28;21087;-84
2022/02/21 01:32:40;;;;;;;3.60;0.30;;;6.80;99.90;;;;;;5033590;28;20179;-85
2022/02/21 01:35:06;;;;;;;2.10;0.20;;;6.80;99.90;;;;;;5034543;28;20492;-84
2022/02/21 01:37:32;;;;;;;0.80;0.40;;;6.90;99.90;;;;;;5034541;28;20413;-85
2022/02/21 01:39:58;;;;;;;0.40;0.20;;;6.80;99.90;;;;;;5034149;28;20468;-84
2022/02/21 01:42:24;;;;;;;0.30;0.20;;;6.80;99.90;;;;;;5034407;28;20563;-84
2022/02/21 01:44:50;;;;;;;2.33;0.30;;;6.80;99.90;;;;;;5034344;28;20178;-83
2022/02/21 01:47:21;;;;;;;1.87;0.20;;;6.80;99.90;;;;;;5037874;28;20187;-85
2022/02/21 01:49:47;;;;;;;1.47;0.30;;;6.70;99.90;;;;;;5035680;28;20507;-86
2022/02/21 01:52:17;;;;;;;0.87;0.20;;;6.70;99.90;;;;;;5047046;28;20431;-84
2022/02/21 01:54:42;;;;;;;1.10;0.20;;;6.70;99.90;;;;;;5035068;28;20424;-82
2022/02/21 01:57:08;;;;;;;0.40;0.20;;;6.60;99.90;;;;;;5041366;28;20904;-83
2022/02/21 01:59:36;;;;;;;1.47;0.20;;;6.60;99.90;;;;;;5034694;28;20192;-83
2022/02/21 02:02:02;;;;;;;0.40;0.20;;;6.60;99.90;;;;;;5053899;28;20470;-82
2022/02/21 02:04:28;;;;;;;0.77;0.30;;;6.50;99.90;;;;;;5053464;28;20424;-85
2022/02/21 02:06:53;;;;;;;0.50;0.20;;;6.50;99.90;;;;;;5053759;28;20178;-84
2022/02/21 02:09:19;;;;;;;0.60;0.20;;;6.50;99.90;;;;;;5053854;28;20874;-85
2022/02/21 02:11:45;;;;;;;1.70;0.30;;;6.40;99.90;;;;;;5053861;28;20529;-83
2022/02/21 02:14:35;;;;;;;2.57;0.30;;;6.40;99.90;;;;;;5053948;28;20205;-83
2022/02/21 02:17:12;;;;;;;0.30;0.20;;;6.10;99.90;;;;;;5045290;28;20658;-86
2022/02/21 02:19:39;;;;;;;0.80;0.40;;;5.90;99.90;;;;;;5053473;28;20408;-87
2022/02/21 02:22:12;;;;;;;0.40;0.20;;;5.80;99.90;;;;;;5053481;28;20607;-82
2022/02/21 02:24:38;;;;;;;2.87;0.67;;;5.80;99.90;;;;;;5053645;28;20434;-84
2022/02/21 02:27:08;;;;;;;2.97;0.63;;;5.70;99.90;;;;;;5053569;28;20440;-85
2022/02/21 02:29:35;;;;;;;3.03;0.43;;;5.70;99.90;;;;;;5053426;28;20821;-85
2022/02/21 02:32:01;;;;;;;9.17;0.60;;;5.70;99.90;;;;;;5053397;28;20916;-85
2022/02/21 02:34:26;;;;;;;6.03;0.57;;;5.70;99.90;;;;;;5053092;28;20416;-84
2022/02/21 02:36:52;;;;;;;7.27;1.47;;;5.70;99.90;;;;;;5052134;28;20174;-84
2022/02/21 02:39:19;;;;;;;2.73;0.60;;;5.70;99.90;;;;;;5053128;28;20177;-84
2022/02/21 02:41:45;;;;;;;1.60;0.40;;;5.70;99.90;;;;;;5052170;28;20231;-84
2022/02/21 02:44:11;;;;;;;5.00;0.63;;;5.70;99.90;;;;;;5053148;28;20793;-84
2022/02/21 02:46:36;;;;;;;4.70;0.50;;;5.70;99.90;;;;;;5053246;28;20203;-84
2022/02/21 02:49:03;;;;;;;1.00;0.50;;;5.70;99.90;;;;;;5051728;28;20907;-82
2022/02/21 02:51:29;;;;;;;1.83;0.73;;;5.80;99.90;;;;;;5053193;28;20172;-83
2022/02/21 02:53:55;;;;;;;4.80;0.53;;;5.80;99.90;;;;;;5053206;28;20420;-82
2022/02/21 02:56:20;;;;;;;5.47;1.27;;;5.80;99.90;;;;;;5052901;28;20507;-84
2022/02/21 02:58:45;;;;;;;5.43;1.70;;;5.70;99.90;;;;;;5051740;28;20177;-83
2022/02/21 03:01:11;;;;;;;3.10;0.80;;;5.70;99.90;;;;;;5052966;28;20197;-83
2022/02/21 03:03:38;;;;;;;9.97;1.17;;;5.70;99.90;;;;;;5052650;28;20188;-83
2022/02/21 03:06:03;;;;;;;3.80;1.40;;;5.70;99.90;;;;;;5052999;28;20162;-84
2022/02/21 03:08:29;;;;;;;6.27;1.40;;;5.70;99.90;;;;;;5051559;28;20940;-84
2022/02/21 03:10:54;;;;;;;6.50;1.77;;;5.60;99.90;;;;;;5051586;28;20183;-83
2022/02/21 03:13:20;;;;;;;5.13;0.87;;;5.60;99.90;;;;;;5052498;28;20161;-84
2022/02/21 03:15:45;;;;;;;4.43;0.73;;;5.50;99.90;;;;;;5052927;28;20177;-85
2022/02/21 03:18:11;;;;;;;8.00;1.10;;;5.50;99.90;;;;;;5052471;28;20177;-84
2022/02/21 03:20:39;;;;;;;2.90;0.70;;;5.40;99.90;;;;;;5051635;28;20290;-84
2022/02/21 03:23:04;;;;;;;5.37;1.40;;;5.40;99.90;;;;;;5052759;28;20298;-83
2022/02/21 03:25:31;;;;;;;8.37;2.10;;;5.40;99.90;;;;;;5052732;28;20424;-84
2022/02/21 03:27:56;;;;;;;7.40;0.87;;;5.30;99.90;;;;;;5051469;28;20170;-84
2022/02/21 03:30:22;;;;;;;7.40;1.40;;;5.20;99.90;;;;;;5052568;28;20469;-84
2022/02/21 03:32:47;;;;;;;5.60;1.77;;;5.20;99.90;;;;;;5052365;28;20663;-84
2022/02/21 03:35:13;;;;;;;3.50;0.73;;;5.20;99.90;;;;;;5052748;28;20642;-85
2022/02/21 03:37:39;;;;;;;10.73;1.90;;;5.10;99.90;;;;;;5052573;28;20262;-85
2022/02/21 03:40:06;;;;;;;8.80;1.63;;;5.10;99.90;;;;;;5052442;28;20499;-84
2022/02/21 03:42:32;;;;;;;9.37;1.00;;;5.10;99.90;;;;;;5052535;28;20169;-86
2022/02/21 03:45:02;;;;;;;8.00;1.40;;;5.00;99.90;;;;;;5052579;28;20495;-85
2022/02/21 03:47:27;;;;;;;7.30;2.23;;;5.10;99.90;;;;;;5052076;28;20276;-84
2022/02/21 03:49:53;;;;;;;7.03;1.53;;;;;;;;;;5052385;28;20558;-83
2022/02/21 03:52:19;;;;;;;11.10;2.20;;;5.10;99.90;;;;;;5051167;28;20711;-84
2022/02/21 03:54:45;;;;;;;10.90;2.03;;;5.00;99.90;;;;;;5052746;28;20449;-80
2022/02/21 03:57:10;;;;;;;6.77;0.77;;;5.00;99.90;;;;;;5052417;28;20177;-83
2022/02/21 03:59:35;;;;;;;11.87;2.43;;;5.00;99.90;;;;;;5052499;28;20197;-85
2022/02/21 04:02:01;;;;;;;11.77;2.63;;;4.90;99.90;;;;;;5051206;28;20178;-87
2022/02/21 04:04:26;;;;;;;13.37;1.93;;;5.00;99.90;;;;;;5051916;28;20170;-83
2022/02/21 04:06:55;;;;;;;13.30;1.60;;;4.90;99.90;;;;;;5052363;28;20168;-83
2022/02/21 04:09:20;;;;;;;11.83;2.80;;;4.80;99.90;;;;;;5052197;28;20654;-82
2022/02/21 04:11:46;;;;;;;12.50;1.90;;;4.80;99.90;;;;;;5052375;28;20482;-83
2022/02/21 04:14:11;;;;;;;10.90;2.50;;;4.80;99.90;;;;;;5051079;28;20170;-83
2022/02/21 04:16:37;;;;;;;24.60;5.07;;;4.70;99.90;;;;;;5051004;28;20219;-83
2022/02/21 04:19:03;;;;;;;12.83;3.50;;;4.70;99.90;;;;;;5051946;28;20245;-84
2022/02/21 04:21:29;;;;;;;18.20;1.93;;;4.80;99.90;;;;;;5052127;28;20181;-82
2022/02/21 04:23:55;;;;;;;18.13;3.07;;;4.80;99.90;;;;;;5052284;28;20787;-83
2022/02/21 04:26:21;;;;;;;19.47;2.97;;;4.70;99.90;;;;;;5054603;28;20408;-86
2022/02/21 04:28:46;;;;;;;12.03;2.27;;;4.80;99.90;;;;;;5055652;28;20451;-85
2022/02/21 04:31:14;;;;;;;25.27;4.60;;;4.90;99.90;;;;;;5055672;28;20268;-85
2022/02/21 04:33:46;;;;;;;11.40;1.67;;;5.10;99.90;;;;;;5055452;28;20204;-84
2022/02/21 04:36:12;;;;;;;7.50;1.77;;;5.10;99.90;;;;;;5055908;28;20900;-86
2022/02/21 04:38:41;;;;;;;15.53;3.87;;;5.10;99.90;;;;;;5054451;28;20969;-82
2022/02/21 04:41:06;;;;;;;16.07;2.83;;;4.80;99.90;;;;;;5055739;28;20459;-84
2022/02/21 04:43:32;;;;;;;16.27;2.80;;;4.70;99.90;;;;;;5054389;28;20427;-83
2022/02/21 04:45:58;;;;;;;13.70;1.97;;;4.70;99.90;;;;;;5055596;28;20173;-84
2022/02/21 04:48:25;;;;;;;10.77;2.07;;;4.70;99.90;;;;;;5055034;28;20412;-83
2022/02/21 04:50:52;;;;;;;9.73;1.50;;;4.70;99.90;;;;;;5055228;28;20430;-84
2022/02/21 04:53:18;;;;;;;9.40;1.30;;;4.70;99.90;;;;;;5053956;28;20416;-82
2022/02/21 04:55:43;;;;;;;11.10;1.07;;;4.10;99.90;;;;;;5055485;28;20772;-84
2022/02/21 04:58:09;;;;;;;6.97;0.93;;;3.80;99.90;;;;;;5055489;28;20435;-83
2022/02/21 05:00:35;;;;;;;5.30;1.23;;;3.70;99.90;;;;;;5055329;28;20181;-83
2022/02/21 05:03:06;;;;;;;5.47;1.07;;;3.80;99.90;;;;;;5054885;28;20181;-83
2022/02/21 05:05:32;;;;;;;7.37;2.03;;;3.80;99.90;;;;;;5055191;28;20241;-82
2022/02/21 05:08:00;;;;;;;4.97;1.30;;;3.80;99.90;;;;;;5053750;28;20844;-83
2022/02/21 05:10:26;;;;;;;15.07;2.53;;;3.80;99.90;;;;;;5054923;28;20214;-83
2022/02/21 05:12:55;;;;;;;6.03;1.00;;;3.90;99.90;;;;;;5055054;28;20905;-83
2022/02/21 05:15:20;;;;;;;7.87;1.47;;;3.90;99.90;;;;;;5054892;28;20176;-82
2022/02/21 05:17:46;;;;;;;5.73;2.00;;;4.00;99.90;;;;;;5054507;28;20456;-83
2022/02/21 05:20:12;;;;;;;9.53;2.30;;;3.90;99.90;;;;;;5053536;28;20634;-83
2022/02/21 05:22:37;;;;;;;14.27;2.57;;;3.90;99.90;;;;;;5055197;28;20158;-86
2022/02/21 05:25:04;;;;;;;4.63;1.07;;;4.00;99.90;;;;;;5054918;28;20421;-83
2022/02/21 05:27:37;;;;;;;9.70;2.70;;;4.10;99.90;;;;;;5054856;28;20166;-84
2022/02/21 05:30:08;;;;;;;7.17;1.10;;;4.10;99.90;;;;;;5054511;28;20804;-83
2022/02/21 05:32:33;;;;;;;15.03;2.37;;;4.10;99.90;;;;;;5052967;28;20433;-84
2022/02/21 05:35:02;;;;;;;10.10;3.20;;;4.10;99.90;;;;;;5052987;28;20460;-84
2022/02/21 05:37:31;;;;;;;6.93;1.03;;;4.10;99.90;;;;;;5054597;28;20261;-83
2022/02/21 05:39:56;;;;;;;5.63;2.30;;;4.10;99.90;;;;;;5054254;28;21019;-84
2022/02/21 05:42:22;;;;;;;8.07;1.30;;;4.10;99.90;;;;;;5054404;28;20511;-84
2022/02/21 05:44:47;;;;;;;17.97;2.00;;;4.10;99.90;;;;;;5054262;28;20174;-84
2022/02/21 05:47:13;;;;;;;10.30;2.00;;;4.20;99.90;;;;;;5053775;28;20289;-84
2022/02/21 05:49:38;;;;;;;9.13;1.70;;;4.30;99.90;;;;;;5053955;28;20275;-82
2022/02/21 05:52:04;;;;;;;6.43;2.00;;;4.20;99.90;;;;;;5054008;28;20197;-85
2022/02/21 05:54:30;;;;;;;5.47;1.50;;;4.10;99.90;;;;;;5053986;28;20194;-84
2022/02/21 05:56:56;;;;;;;15.07;1.83;;;4.10;99.90;;;;;;5052568;28;20425;-83
2022/02/21 05:59:25;;;;;;;6.03;1.30;;;4.00;99.90;;;;;;5054006;28;20166;-84
2022/02/21 06:01:51;;;;;;;7.73;1.80;;;4.00;99.90;;;;;;5053656;28;20483;-82
2022/02/21 06:04:17;;;;;;;3.17;1.03;;;3.90;99.90;;;;;;5053862;28;20503;-81
2022/02/21 06:06:43;;;;;;;3.80;0.70;;;3.90;99.90;;;;;;5053756;28;20176;-85
2022/02/21 06:09:09;;;;;;;6.97;1.43;;;4.00;99.90;;;;;;5052402;28;20530;-84
2022/02/21 06:11:34;;;;;;;10.17;2.27;;;4.10;99.90;;;;;;5053663;28;20177;-83
2022/02/21 06:14:00;;;;;;;8.97;1.20;;;4.10;99.90;;;;;;5053672;28;20205;-85
2022/02/21 06:16:26;;;;;;;7.07;2.23;;;4.10;99.90;;;;;;5053612;28;20173;-82
2022/02/21 06:18:51;;;;;;;6.40;0.97;;;4.00;99.90;;;;;;5053322;28;20405;-82
2022/02/21 06:21:17;;;;;;;5.53;1.30;;;4.00;99.90;;;;;;5052193;28;20228;-84
2022/02/21 06:23:42;;;;;;;7.20;1.13;;;3.90;99.90;;;;;;5053277;28;20228;-83
2022/02/21 06:26:08;;;;;;;5.13;1.40;;;3.80;99.90;;;;;;5053343;28;20171;-83
2022/02/21 06:28:34;;;;;;;4.43;1.87;;;3.80;99.90;;;;;;5050937;28;20173;-81
2022/02/21 06:31:08;;;;;;;3.53;0.90;;;3.80;99.90;;;;;;5052852;28;20205;-82
2022/02/21 06:33:34;;;;;;;7.10;1.90;;;3.80;99.90;;;;;;5053095;28;20174;-83
2022/02/21 06:35:59;;;;;;;5.23;1.47;;;3.80;99.90;;;;;;5053110;28;20420;-83
2022/02/21 06:38:28;;;;;;;6.90;2.40;;;3.70;99.90;;;;;;5051906;28;20176;-85
2022/02/21 06:40:53;;;;;;;14.63;1.87;;;3.70;99.90;;;;;;5052831;28;20221;-85
2022/02/21 06:43:18;;;;;;;10.03;1.47;;;3.70;99.90;;;;;;5052012;28;20916;-84
2022/02/21 06:45:45;;;;;;;8.03;1.20;;;3.60;99.90;;;;;;5051458;28;20261;-81
2022/02/21 06:48:13;;;;;;;17.13;2.50;;;3.60;99.90;;;;;;5112001;22;20235;-83
2022/02/21 06:50:39;;;;;;;10.13;2.37;;;3.60;99.90;;;;;;5051438;28;21014;-82
2022/02/21 06:53:06;;;;;;;7.87;2.50;;;3.60;99.90;;;;;;5035129;28;20523;-83
2022/02/21 06:55:31;;;;;;;8.30;1.70;;;3.60;99.90;;;;;;5035945;28;20189;-83
2022/02/21 06:58:03;;;;;;;7.13;2.30;;;3.50;99.90;;;;;;5053055;28;20993;-82
2022/02/21 07:00:28;;;;;;;10.57;2.43;;;3.60;99.90;;;;;;5034985;28;20522;-82
2022/02/21 07:02:57;;;;;;;7.43;1.70;;;3.60;99.90;;;;;;5032640;28;20425;-83
2022/02/21 07:05:25;;;;;;;14.83;3.00;;;3.60;99.90;;;;;;5031428;28;20266;-84
2022/02/21 07:07:51;;;;;;;3.43;0.87;;;3.70;99.90;;;;;;5032330;28;20471;-84
2022/02/21 07:10:16;;;;;;;7.17;2.13;;;3.80;99.90;;;;;;5033016;28;20965;-86
2022/02/21 07:12:41;;;;;;;4.97;1.53;;;4.00;99.90;;;;;;5031510;28;20168;-82
2022/02/21 07:15:07;;;;;;;7.90;2.53;;;4.10;99.90;;;;;;5032995;28;20245;-81
2022/02/21 07:17:41;;;;;;;10.17;1.80;;;4.30;99.90;;;;;;5031258;28;20534;-81
2022/02/21 07:20:12;;;;;;;8.07;1.37;;;4.30;99.90;;;;;;5032773;28;20885;-81
2022/02/21 07:22:41;;;;;;;8.43;1.63;;;4.30;99.90;;;;;;5032783;28;20967;-81
2022/02/21 07:25:08;;;;;;;9.27;1.63;;;4.30;99.90;;;;;;5032842;28;20413;-82
2022/02/21 07:27:41;;;;;;;8.33;1.90;;;4.30;99.90;;;;;;5032934;28;20742;-82
2022/02/21 07:30:08;;;;;;;10.17;2.70;;;4.20;99.90;;;;;;5032736;28;20496;-82
2022/02/21 07:32:34;;;;;;;9.23;1.77;;;4.10;99.90;;;;;;5032417;28;20415;-84
2022/02/21 07:34:59;;;;;;;5.83;1.17;;;4.10;99.90;;;;;;5032837;28;20496;-83
2022/02/21 07:37:25;;;;;;;6.23;1.57;;;4.10;99.90;;;;;;5031633;28;20510;-83
2022/02/21 07:39:50;;;;;;;10.80;1.33;;;4.10;99.90;;;;;;5032757;28;20182;-86
2022/02/21 07:42:15;;;;;;;8.50;2.50;;;4.20;99.90;;;;;;5044480;28;20190;-86
2022/02/21 07:44:41;;;;;;;8.97;1.60;;;4.20;99.90;;;;;;5049914;28;20210;-86
2022/02/21 07:47:06;;;;;;;5.53;1.27;;;4.20;99.90;;;;;;5030833;28;20168;-86
2022/02/21 07:49:32;;;;;;;10.73;1.63;;;4.40;99.90;;;;;;5032475;28;20253;-84
2022/02/21 07:51:57;;;;;;;4.37;0.90;;;4.80;99.90;;;;;;5032252;28;20177;-84
2022/02/21 07:54:25;;;;;;;6.43;1.93;;;5.20;99.90;;;;;;5031476;28;20869;-84
2022/02/21 07:56:50;;;;;;;5.77;1.10;;;6.30;99.90;;;;;;5031897;28;20158;-83
2022/02/21 07:59:17;;;;;;;6.70;1.50;;;7.30;99.90;;;;;;5034679;28;20432;-84
2022/02/21 08:01:43;;;;;;;6.83;1.20;;;7.90;99.90;;;;;;5036028;28;20406;-84
2022/02/21 08:04:08;;;;;;;5.90;1.37;;;7.10;99.90;;;;;;5036227;28;20429;-83
2022/02/21 08:06:34;;;;;;;2.97;0.63;;;5.70;99.90;;;;;;5036220;28;20184;-83
2022/02/21 08:08:59;;;;;;;11.50;2.37;;;5.00;99.90;;;;;;5035992;28;20701;-83
2022/02/21 08:11:25;;;;;;;9.43;1.80;;;4.80;99.90;;;;;;5036157;28;20196;-82
2022/02/21 08:13:54;;;;;;;9.87;1.73;;;4.70;99.90;;;;;;5035993;28;20170;-82
2022/02/21 08:16:20;;;;;;;6.67;2.53;;;4.60;99.90;;;;;;5036079;28;20167;-82
2022/02/21 08:18:45;;;;;;;10.47;1.97;;;4.60;99.90;;;;;;5033979;28;20423;-81
2022/02/21 08:21:10;;;;;;;7.13;2.13;;;4.50;99.90;;;;;;5034716;28;20421;-83
2022/02/21 08:23:36;;;;;;;13.47;2.10;;;4.40;99.90;;;;;;5035868;28;20649;-82
2022/02/21 08:26:01;;;;;;;4.97;1.90;;;4.30;99.90;;;;;;5035846;28;20170;-82
2022/02/21 08:28:27;;;;;;;3.93;1.03;;;4.30;99.90;;;;;;5035763;28;20533;-83
2022/02/21 08:30:56;;;;;;;5.03;1.20;;;4.10;99.90;;;;;;5035756;28;20652;-82
2022/02/21 08:33:21;;;;;;;7.50;1.03;;;3.90;99.90;;;;;;5035458;28;20174;-82
2022/02/21 08:35:47;;;;;;;8.37;1.50;;;3.80;99.90;;;;;;5035732;28;20471;-82
2022/02/21 08:38:12;;;;;;;6.73;1.23;;;3.60;99.90;;;;;;5035487;28;20179;-81
2022/02/21 08:40:39;;;;;;;2.83;1.07;;;3.60;99.90;;;;;;5035632;28;20261;-82
2022/02/21 08:43:04;;;;;;;8.87;1.90;;;3.60;99.90;;;;;;5035603;28;20200;-82
2022/02/21 08:45:30;;;;;;;6.60;1.67;;;3.50;99.90;;;;;;5035496;28;20495;-82
2022/02/21 08:47:55;;;;;;;5.70;1.37;;;3.40;99.90;;;;;;5034995;28;20242;-82
2022/02/21 08:50:22;;;;;;;8.43;2.10;;;3.40;99.90;;;;;;5035277;28;20242;-81
2022/02/21 08:52:47;;;;;;;9.03;2.20;;;3.40;99.90;;;;;;5035321;28;20242;-82
2022/02/21 08:55:18;;;;;;;6.57;1.73;;;3.50;99.90;;;;;;5035035;28;20453;-82
2022/02/21 08:57:45;;;;;;;9.00;1.77;;;3.50;99.90;;;;;;5035144;28;20181;-82
2022/02/21 09:00:12;;;;;;;4.20;1.37;;;3.60;99.90;;;;;;5035043;28;20503;-83
2022/02/21 09:02:37;;;;;;;7.50;2.93;;;3.60;99.90;;;;;;5034594;28;20435;-82
2022/02/21 09:05:04;;;;;;;4.30;1.53;;;3.70;99.90;;;;;;5034775;28;20939;-81
2022/02/21 09:07:29;;;;;;;8.17;2.60;;;3.70;99.90;;;;;;5034949;28;20210;-82
2022/02/21 09:09:55;;;;;;;6.20;2.03;;;3.70;99.90;;;;;;5034155;28;20945;-82
2022/02/21 09:12:21;;;;;;;8.60;2.50;;;3.80;99.90;;;;;;5034821;28;20809;-83
2022/02/21 09:14:47;;;;;;;5.83;1.50;;;3.80;99.90;;;;;;5034793;28;20204;-83
2022/02/21 09:17:17;;;;;;;12.37;2.17;;;3.80;99.90;;;;;;5034314;28;20168;-81
2022/02/21 09:19:44;;;;;;;5.13;1.77;;;4.00;99.90;;;;;;5034672;28;20517;-82
2022/02/21 09:22:11;;;;;;;10.70;2.03;;;4.20;99.90;;;;;;5034503;28;20545;-82
2022/02/21 09:24:36;;;;;;;8.33;1.57;;;4.20;99.90;;;;;;5034542;28;20522;-83
2022/02/21 09:27:02;;;;;;;5.60;2.10;;;4.10;99.90;;;;;;5034563;28;20493;-82
2022/02/21 09:29:27;;;;;;;5.83;1.90;;;4.20;99.90;;;;;;5034244;28;20209;-81
2022/02/21 09:31:56;;;;;;;13.73;2.63;;;4.30;99.90;;;;;;5034060;28;20698;-81
2022/02/21 09:34:21;;;;;;;6.20;1.37;;;4.70;99.90;;;;;;5034388;28;20186;-81
2022/02/21 09:36:47;;;;;;;6.70;2.00;;;4.90;99.90;;;;;;5034156;28;20503;-82
2022/02/21 09:39:13;;;;;;;8.33;1.37;;;5.10;99.90;;;;;;5034288;28;20261;-82
2022/02/21 09:41:38;;;;;;;7.07;1.40;;;4.90;99.90;;;;;;5034315;28;20913;-82
2022/02/21 09:44:04;;;;;;;10.90;2.47;;;4.80;99.90;;;;;;5034143;28;20254;-81
2022/02/21 09:46:31;;;;;;;8.27;1.47;;;4.80;99.90;;;;;;5033755;28;20178;-83
2022/02/21 09:48:58;;;;;;;2.40;1.10;;;5.00;99.90;;;;;;5033719;28;20225;-82
2022/02/21 09:51:24;;;;;;;11.80;1.97;;;5.10;99.90;;;;;;5033824;28;20415;-83
2022/02/21 09:53:50;;;;;;;5.47;1.13;;;5.10;99.90;;;;;;5032537;28;20431;-83
2022/02/21 09:56:16;;;;;;;8.37;1.73;;;5.30;99.90;;;;;;5033888;28;20650;-83
2022/02/21 09:58:41;;;;;;;6.47;1.07;;;5.40;99.90;;;;;;5033723;28;20875;-83
2022/02/21 10:01:07;;;;;;;3.97;1.07;;;5.70;99.90;;;;;;5033780;28;20178;-82
2022/02/21 10:03:43;;;;;;;8.83;1.40;;;6.20;99.90;;;;;;5033439;28;20217;-82
2022/02/21 10:06:26;;;;;;;6.83;2.27;;;6.30;99.90;;;;;;5033655;28;20197;-82
2022/02/21 10:09:10;;;;;;;4.53;1.57;;;7.20;99.90;;;;;;5033605;28;20493;-86
2022/02/21 10:11:39;;;;;;;8.30;1.43;;;6.70;99.90;;;;;;5032193;28;21023;-83
2022/02/21 10:14:09;;;;;;;10.37;2.40;;;7.90;99.90;;;;;;5033424;28;20410;-83
2022/02/21 10:16:55;;;;;;;11.47;2.13;;;7.70;99.90;;;;;;5033107;28;20459;-83
2022/02/21 10:19:30;;;;;;;6.43;2.10;;;7.40;99.90;;;;;;5031988;28;20503;-84
2022/02/21 10:22:08;;;;;;;7.60;1.00;;;7.70;99.90;;;;;;5045295;28;20775;-83
2022/02/21 10:24:46;;;;;;;9.43;1.13;;;7.30;99.90;;;;;;5052269;28;20522;-85
2022/02/21 10:27:15;;;;;;;9.53;1.40;;;7.10;99.90;;;;;;5052330;28;20418;-85
2022/02/21 10:29:55;;;;;;;7.93;2.70;;;7.30;99.90;;;;;;5052031;28;20473;-83
2022/02/21 10:32:24;;;;;;;7.90;1.50;;;6.90;99.90;;;;;;5051855;28;20421;-85
2022/02/21 10:34:51;;;;;;;5.87;1.40;;;6.60;99.90;;;;;;5052126;28;20462;-83
2022/02/21 10:37:25;;;;;;;7.50;1.40;;;6.90;99.90;;;;;;5051975;28;20414;-83
2022/02/21 10:40:08;;;;;;;8.93;1.63;;;6.50;99.90;;;;;;5051630;28;20415;-83
2022/02/21 10:42:34;;;;;;;9.27;1.30;;;6.30;99.90;;;;;;5050275;28;20422;-83
2022/02/21 10:45:18;;;;;;;8.73;3.37;;;6.30;99.90;;;;;;5049199;28;20423;-84
2022/02/21 10:48:02;;;;;;;9.40;1.57;;;6.20;99.90;;;;;;5048997;28;20185;-83
2022/02/21 10:50:30;;;;;;;8.00;1.70;;;6.10;99.90;;;;;;5050844;28;20882;-83
2022/02/21 10:52:56;;;;;;;6.83;1.93;;;5.90;99.90;;;;;;5049073;28;20991;-83
2022/02/21 10:55:34;;;;;;;5.43;1.37;;;5.80;99.90;;;;;;5049576;28;20559;-83
2022/02/21 10:58:00;;;;;;;6.03;1.07;;;5.90;99.90;;;;;;5051706;28;20409;-83
2022/02/21 11:00:25;;;;;;;10.70;2.20;;;5.80;99.90;;;;;;5050103;28;20409;-83
2022/02/21 11:02:52;;;;;;;6.60;1.37;;;5.80;99.90;;;;;;5050197;28;20170;-85
2022/02/21 11:05:19;;;;;;;17.27;2.13;;;5.80;99.90;;;;;;5052802;28;20160;-87
2022/02/21 11:07:46;;;;;;;6.83;1.77;;;5.80;99.90;;;;;;5051387;28;20417;-86
2022/02/21 11:10:11;;;;;;;5.10;1.10;;;5.70;99.90;;;;;;5052688;28;20475;-84
2022/02/21 11:12:42;;;;;;;8.77;2.60;;;5.80;99.90;;;;;;5051370;28;21023;-84
2022/02/21 11:15:08;;;;;;;5.50;2.17;;;5.70;99.90;;;;;;5051320;28;20174;-85
2022/02/21 11:17:36;;;;;;;10.47;1.63;;;5.70;99.90;;;;;;5052271;28;20416;-83
2022/02/21 11:20:10;;;;;;;4.47;0.83;;;5.70;99.90;;;;;;5052588;28;20418;-84
2022/02/21 11:22:35;;;;;;;8.10;1.03;;;5.70;99.90;;;;;;5051000;28;20978;-83
2022/02/21 11:25:13;;;;;;;7.93;1.07;;;5.60;99.90;;;;;;5048416;28;20430;-83
2022/02/21 11:28:21;;;;;;;10.40;1.87;;;5.70;99.90;;;;;;5049741;28;20169;-86
2022/02/21 11:30:49;;;;;;;3.87;1.37;;;5.60;99.90;;;;;;5050020;28;20818;-84
2022/02/21 11:33:17;;;;;;;5.00;0.83;;;5.70;99.90;;;;;;5050852;28;20408;-86
2022/02/21 11:36:09;;;;;;;4.07;0.87;;;5.60;99.90;;;;;;5053641;28;20940;-84
2022/02/21 11:38:36;;;;;;;6.40;1.50;;;;;;;;;;5055181;28;20489;-83
2022/02/21 11:41:05;;;;;;;7.50;1.67;;;5.30;99.90;;;;;;5055250;28;20399;-85
2022/02/21 11:43:33;;;;;;;8.07;2.03;;;5.40;99.90;;;;;;5055287;28;20446;-84
2022/02/21 11:46:08;;;;;;;2.43;1.43;;;5.50;99.90;;;;;;5054887;28;20514;-84
2022/02/21 11:48:59;;;;;;;10.47;1.50;;;5.40;99.90;;;;;;5053471;28;20532;-83
2022/02/21 11:51:36;;;;;;;6.70;1.20;;;5.60;99.90;;;;;;5053765;28;20435;-84
2022/02/21 11:54:11;;;;;;;14.70;1.67;;;5.40;99.90;;;;;;5055308;28;20434;-85
2022/02/21 11:56:51;;;;;;;3.40;0.70;;;5.30;99.90;;;;;;5055242;28;20767;-85
2022/02/21 11:59:23;;;;;;;8.83;1.33;;;5.30;99.90;;;;;;5053943;28;20489;-85
2022/02/21 12:02:10;;;;;;;7.40;1.50;;;5.40;99.90;;;;;;5054799;28;20408;-86
2022/02/21 12:05:17;;;;;;;10.40;1.90;;;5.40;99.90;;;;;;5054301;28;20916;-84
2022/02/21 12:07:44;;;;;;;9.40;1.20;;;5.40;99.90;;;;;;5054845;28;20445;-86
2022/02/21 12:10:21;;;;;;;4.97;1.00;;;5.30;99.90;;;;;;5054092;28;20482;-78
2022/02/21 12:13:10;;;;;;;3.43;1.43;;;5.30;99.90;;;;;;5055659;28;20406;-81
2022/02/21 12:15:37;;;;;;;8.30;1.90;;;5.20;99.90;;;;;;5054062;28;20442;-80
2022/02/21 12:18:31;;;;;;;5.60;1.50;;;5.20;99.90;;;;;;5055186;28;20411;-79
2022/02/21 12:21:09;;;;;;;7.00;1.80;;;5.10;99.90;;;;;;5042535;28;20988;-80
2022/02/21 12:23:36;;;;;;;11.63;1.30;;;5.20;99.90;;;;;;5041192;28;20445;-80
2022/02/21 12:26:02;;;;;;;4.87;1.27;;;5.10;99.90;;;;;;5053813;28;20526;-80
2022/02/21 12:28:34;;;;;;;6.53;1.50;;;5.30;99.90;;;;;;5053740;28;20984;-81
2022/02/21 12:31:00;;;;;;;4.23;0.97;;;5.30;99.90;;;;;;5053594;28;20211;-80
2022/02/21 12:33:31;;;;;;;4.23;0.53;;;5.30;99.90;;;;;;5054882;28;20847;-80
2022/02/21 12:36:03;;;;;;;9.80;1.47;;;5.20;99.90;;;;;;5054845;28;20185;-80
2022/02/21 12:38:34;;;;;;;3.30;0.93;;;5.20;99.90;;;;;;5054057;28;20996;-81
2022/02/21 12:41:11;;;;;;;2.20;0.57;;;5.00;99.90;;;;;;5055350;28;20507;-81
2022/02/21 12:43:55;;;;;;;9.63;0.90;;;5.10;99.90;;;;;;5054025;28;20443;-80
2022/02/21 12:46:26;;;;;;;2.37;0.67;;;4.90;99.90;;;;;;5053812;28;20409;-80
2022/02/21 12:48:53;;;;;;;3.50;0.80;;;4.90;99.90;;;;;;5054851;28;20463;-80
2022/02/21 12:51:24;;;;;;;6.07;1.60;;;4.80;99.90;;;;;;5053798;28;20439;-80
2022/02/21 12:53:52;;;;;;;3.20;0.97;;;4.80;99.90;;;;;;5055096;28;20410;-80
2022/02/21 12:56:18;;;;;;;3.90;0.60;;;4.80;99.90;;;;;;5053823;28;20424;-80
2022/02/21 12:58:43;;;;;;;5.07;1.00;;;4.80;99.90;;;;;;5054947;28;20414;-80